sensor_id;sensor_type;location;lat;lon;timestamp;P1;durP1;ratioP1;P2;durP2;ratioP2
35380;SDS011;21486;51.916;8.378;2022-12-10T00:01:51;97.20;;;50.10;;
35380;SDS011;21486;51.916;8.378;2022-12-10T00:04:18;94.90;;;50.75;;
35380;SDS011;21486;51.916;8.378;2022-12-10T00:06:44;97.57;;;52.42;;
35380;SDS011;21486;51.916;8.378;2022-12-10T00:09:11;102.43;;;51.95;;
35380;SDS011;21486;51.916;8.378;2022-12-10T00:11:39;106.47;;;52.40;;
35380;SDS011;21486;51.916;8.378;2022-12-10T00:14:05;100.18;;;52.28;;
35380;SDS011;21486;51.916;8.378;2022-12-10T00:16:32;92.87;;;50.53;;
35380;SDS011;21486;51.916;8.378;2022-12-10T00:18:58;94.35;;;50.60;;
35380;SDS011;21486;51.916;8.378;2022-12-10T00:21:25;94.80;;;49.38;;
35380;SDS011;21486;51.916;8.378;2022-12-10T00:23:52;93.93;;;50.37;;
35380;SDS011;21486;51.916;8.378;2022-12-10T00:26:23;97.93;;;50.08;;
35380;SDS011;21486;51.916;8.378;2022-12-10T00:28:51;98.80;;;50.78;;
35380;SDS011;21486;51.916;8.378;2022-12-10T00:31:18;99.28;;;52.15;;
35380;SDS011;21486;51.916;8.378;2022-12-10T00:33:45;96.65;;;49.45;;
35380;SDS011;21486;51.916;8.378;2022-12-10T00:36:12;90.18;;;48.78;;
35380;SDS011;21486;51.916;8.378;2022-12-10T00:38:40;93.38;;;48.63;;
35380;SDS011;21486;51.916;8.378;2022-12-10T00:41:06;90.18;;;48.17;;
35380;SDS011;21486;51.916;8.378;2022-12-10T00:43:31;90.93;;;48.07;;
35380;SDS011;21486;51.916;8.378;2022-12-10T00:45:57;86.72;;;46.28;;
35380;SDS011;21486;51.916;8.378;2022-12-10T00:48:23;85.43;;;47.17;;
35380;SDS011;21486;51.916;8.378;2022-12-10T00:51:00;86.10;;;48.28;;
35380;SDS011;21486;51.916;8.378;2022-12-10T00:53:33;90.43;;;48.47;;
35380;SDS011;21486;51.916;8.378;2022-12-10T00:56:00;91.23;;;48.83;;
35380;SDS011;21486;51.916;8.378;2022-12-10T00:58:29;93.67;;;49.20;;
35380;SDS011;21486;51.916;8.378;2022-12-10T01:01:13;87.38;;;46.28;;
35380;SDS011;21486;51.916;8.378;2022-12-10T01:04:04;90.38;;;48.13;;
35380;SDS011;21486;51.916;8.378;2022-12-10T01:06:33;87.35;;;45.90;;
35380;SDS011;21486;51.916;8.378;2022-12-10T01:09:01;85.63;;;46.72;;
35380;SDS011;21486;51.916;8.378;2022-12-10T01:11:32;88.20;;;47.88;;
35380;SDS011;21486;51.916;8.378;2022-12-10T01:13:59;86.03;;;46.05;;
35380;SDS011;21486;51.916;8.378;2022-12-10T01:16:25;88.25;;;47.45;;
35380;SDS011;21486;51.916;8.378;2022-12-10T01:18:52;93.75;;;48.95;;
35380;SDS011;21486;51.916;8.378;2022-12-10T01:21:19;96.93;;;49.10;;
35380;SDS011;21486;51.916;8.378;2022-12-10T01:23:47;91.63;;;49.35;;
35380;SDS011;21486;51.916;8.378;2022-12-10T01:26:15;98.53;;;49.05;;
35380;SDS011;21486;51.916;8.378;2022-12-10T01:28:42;88.35;;;47.33;;
35380;SDS011;21486;51.916;8.378;2022-12-10T01:33:02;86.90;;;46.53;;
35380;SDS011;21486;51.916;8.378;2022-12-10T01:35:27;85.03;;;46.27;;
35380;SDS011;21486;51.916;8.378;2022-12-10T01:37:53;88.03;;;48.03;;
35380;SDS011;21486;51.916;8.378;2022-12-10T01:40:18;89.78;;;46.88;;
35380;SDS011;21486;51.916;8.378;2022-12-10T01:42:44;87.72;;;47.90;;
35380;SDS011;21486;51.916;8.378;2022-12-10T01:45:11;90.18;;;48.97;;
35380;SDS011;21486;51.916;8.378;2022-12-10T01:47:37;92.15;;;48.17;;
35380;SDS011;21486;51.916;8.378;2022-12-10T01:50:04;84.10;;;47.03;;
35380;SDS011;21486;51.916;8.378;2022-12-10T01:52:30;89.43;;;46.88;;
35380;SDS011;21486;51.916;8.378;2022-12-10T01:54:56;86.47;;;46.80;;
35380;SDS011;21486;51.916;8.378;2022-12-10T01:57:25;95.88;;;49.40;;
35380;SDS011;21486;51.916;8.378;2022-12-10T01:59:53;94.67;;;50.07;;
35380;SDS011;21486;51.916;8.378;2022-12-10T02:04:54;91.07;;;48.90;;
35380;SDS011;21486;51.916;8.378;2022-12-10T02:07:59;92.10;;;47.72;;
35380;SDS011;21486;51.916;8.378;2022-12-10T02:13:41;90.88;;;48.63;;
35380;SDS011;21486;51.916;8.378;2022-12-10T02:16:21;84.18;;;46.53;;
35380;SDS011;21486;51.916;8.378;2022-12-10T02:19:13;95.78;;;47.47;;
35380;SDS011;21486;51.916;8.378;2022-12-10T02:21:41;90.78;;;46.78;;
35380;SDS011;21486;51.916;8.378;2022-12-10T02:24:10;84.45;;;46.33;;
35380;SDS011;21486;51.916;8.378;2022-12-10T02:29:18;85.97;;;47.45;;
35380;SDS011;21486;51.916;8.378;2022-12-10T02:31:46;83.07;;;46.42;;
35380;SDS011;21486;51.916;8.378;2022-12-10T02:34:16;81.97;;;44.42;;
35380;SDS011;21486;51.916;8.378;2022-12-10T02:36:44;87.38;;;46.28;;
35380;SDS011;21486;51.916;8.378;2022-12-10T02:39:13;90.15;;;45.40;;
35380;SDS011;21486;51.916;8.378;2022-12-10T02:41:47;85.43;;;46.83;;
35380;SDS011;21486;51.916;8.378;2022-12-10T02:44:17;86.47;;;45.10;;
35380;SDS011;21486;51.916;8.378;2022-12-10T02:46:45;88.25;;;46.90;;
35380;SDS011;21486;51.916;8.378;2022-12-10T02:49:14;85.67;;;44.60;;
35380;SDS011;21486;51.916;8.378;2022-12-10T02:51:41;89.30;;;46.20;;
35380;SDS011;21486;51.916;8.378;2022-12-10T02:54:32;88.35;;;46.03;;
35380;SDS011;21486;51.916;8.378;2022-12-10T02:57:04;86.97;;;47.50;;
35380;SDS011;21486;51.916;8.378;2022-12-10T02:59:59;86.57;;;45.92;;
35380;SDS011;21486;51.916;8.378;2022-12-10T03:05:13;83.00;;;45.60;;
35380;SDS011;21486;51.916;8.378;2022-12-10T03:10:29;87.05;;;45.63;;
35380;SDS011;21486;51.916;8.378;2022-12-10T03:13:01;80.45;;;44.42;;
35380;SDS011;21486;51.916;8.378;2022-12-10T03:15:31;87.35;;;47.00;;
35380;SDS011;21486;51.916;8.378;2022-12-10T03:18:00;94.47;;;45.63;;
35380;SDS011;21486;51.916;8.378;2022-12-10T03:20:28;82.38;;;45.00;;
35380;SDS011;21486;51.916;8.378;2022-12-10T03:22:57;81.88;;;45.92;;
35380;SDS011;21486;51.916;8.378;2022-12-10T03:25:24;85.10;;;45.47;;
35380;SDS011;21486;51.916;8.378;2022-12-10T03:27:51;86.28;;;46.72;;
35380;SDS011;21486;51.916;8.378;2022-12-10T03:30:20;84.00;;;44.47;;
35380;SDS011;21486;51.916;8.378;2022-12-10T03:32:46;87.20;;;46.08;;
35380;SDS011;21486;51.916;8.378;2022-12-10T03:35:12;82.35;;;45.60;;
35380;SDS011;21486;51.916;8.378;2022-12-10T03:37:39;76.13;;;42.67;;
35380;SDS011;21486;51.916;8.378;2022-12-10T03:40:05;80.38;;;43.17;;
35380;SDS011;21486;51.916;8.378;2022-12-10T03:42:34;72.32;;;42.80;;
35380;SDS011;21486;51.916;8.378;2022-12-10T03:45:01;79.30;;;43.55;;
35380;SDS011;21486;51.916;8.378;2022-12-10T03:47:27;81.00;;;45.17;;
35380;SDS011;21486;51.916;8.378;2022-12-10T03:49:53;79.35;;;44.55;;
35380;SDS011;21486;51.916;8.378;2022-12-10T03:52:19;80.17;;;43.90;;
35380;SDS011;21486;51.916;8.378;2022-12-10T03:54:44;76.47;;;42.75;;
35380;SDS011;21486;51.916;8.378;2022-12-10T03:57:10;84.57;;;45.22;;
35380;SDS011;21486;51.916;8.378;2022-12-10T03:59:35;74.57;;;43.27;;
35380;SDS011;21486;51.916;8.378;2022-12-10T04:02:01;77.87;;;42.47;;
35380;SDS011;21486;51.916;8.378;2022-12-10T04:04:27;79.73;;;42.00;;
35380;SDS011;21486;51.916;8.378;2022-12-10T04:06:52;78.13;;;43.60;;
35380;SDS011;21486;51.916;8.378;2022-12-10T04:09:18;81.73;;;43.80;;
35380;SDS011;21486;51.916;8.378;2022-12-10T04:11:44;78.80;;;43.13;;
35380;SDS011;21486;51.916;8.378;2022-12-10T04:14:10;81.95;;;44.58;;
35380;SDS011;21486;51.916;8.378;2022-12-10T04:16:55;81.15;;;44.22;;
35380;SDS011;21486;51.916;8.378;2022-12-10T04:19:20;87.80;;;45.43;;
35380;SDS011;21486;51.916;8.378;2022-12-10T04:21:47;81.07;;;44.45;;
35380;SDS011;21486;51.916;8.378;2022-12-10T04:24:32;80.40;;;44.30;;
35380;SDS011;21486;51.916;8.378;2022-12-10T04:27:20;75.68;;;42.58;;
35380;SDS011;21486;51.916;8.378;2022-12-10T04:29:49;77.60;;;43.25;;
35380;SDS011;21486;51.916;8.378;2022-12-10T04:32:16;87.55;;;45.40;;
35380;SDS011;21486;51.916;8.378;2022-12-10T04:34:42;83.67;;;44.97;;
35380;SDS011;21486;51.916;8.378;2022-12-10T04:37:07;83.43;;;45.75;;
35380;SDS011;21486;51.916;8.378;2022-12-10T04:39:33;81.20;;;45.75;;
35380;SDS011;21486;51.916;8.378;2022-12-10T04:42:00;84.13;;;45.30;;
35380;SDS011;21486;51.916;8.378;2022-12-10T04:44:25;86.53;;;46.03;;
35380;SDS011;21486;51.916;8.378;2022-12-10T04:46:51;83.80;;;47.30;;
35380;SDS011;21486;51.916;8.378;2022-12-10T04:49:17;89.53;;;48.33;;
35380;SDS011;21486;51.916;8.378;2022-12-10T04:51:43;86.38;;;48.53;;
35380;SDS011;21486;51.916;8.378;2022-12-10T04:54:09;88.10;;;46.13;;
35380;SDS011;21486;51.916;8.378;2022-12-10T04:56:35;81.63;;;46.10;;
35380;SDS011;21486;51.916;8.378;2022-12-10T04:59:01;84.18;;;45.15;;
35380;SDS011;21486;51.916;8.378;2022-12-10T05:01:27;75.97;;;44.10;;
35380;SDS011;21486;51.916;8.378;2022-12-10T05:03:53;81.05;;;44.78;;
35380;SDS011;21486;51.916;8.378;2022-12-10T05:06:19;76.03;;;43.72;;
35380;SDS011;21486;51.916;8.378;2022-12-10T05:08:46;80.05;;;44.10;;
35380;SDS011;21486;51.916;8.378;2022-12-10T05:11:14;79.68;;;44.65;;
35380;SDS011;21486;51.916;8.378;2022-12-10T05:13:44;77.40;;;44.55;;
35380;SDS011;21486;51.916;8.378;2022-12-10T05:16:11;77.65;;;44.78;;
35380;SDS011;21486;51.916;8.378;2022-12-10T05:18:38;78.72;;;45.22;;
35380;SDS011;21486;51.916;8.378;2022-12-10T05:21:05;79.20;;;44.35;;
35380;SDS011;21486;51.916;8.378;2022-12-10T05:23:33;79.90;;;45.13;;
35380;SDS011;21486;51.916;8.378;2022-12-10T05:26:02;77.95;;;42.72;;
35380;SDS011;21486;51.916;8.378;2022-12-10T05:28:39;80.40;;;44.03;;
35380;SDS011;21486;51.916;8.378;2022-12-10T05:31:26;80.20;;;44.53;;
35380;SDS011;21486;51.916;8.378;2022-12-10T05:33:54;82.13;;;45.47;;
35380;SDS011;21486;51.916;8.378;2022-12-10T05:36:22;78.00;;;44.17;;
35380;SDS011;21486;51.916;8.378;2022-12-10T05:38:49;78.43;;;44.50;;
35380;SDS011;21486;51.916;8.378;2022-12-10T05:41:29;80.63;;;45.15;;
35380;SDS011;21486;51.916;8.378;2022-12-10T05:43:58;79.45;;;44.70;;
35380;SDS011;21486;51.916;8.378;2022-12-10T05:46:25;76.35;;;42.53;;
35380;SDS011;21486;51.916;8.378;2022-12-10T05:48:53;72.03;;;42.40;;
35380;SDS011;21486;51.916;8.378;2022-12-10T05:51:20;71.53;;;42.78;;
35380;SDS011;21486;51.916;8.378;2022-12-10T05:53:47;72.97;;;41.78;;
35380;SDS011;21486;51.916;8.378;2022-12-10T05:56:14;73.78;;;42.55;;
35380;SDS011;21486;51.916;8.378;2022-12-10T05:58:43;72.13;;;42.13;;
35380;SDS011;21486;51.916;8.378;2022-12-10T06:01:11;78.47;;;42.05;;
35380;SDS011;21486;51.916;8.378;2022-12-10T06:03:39;72.40;;;42.20;;
35380;SDS011;21486;51.916;8.378;2022-12-10T06:06:05;71.68;;;40.95;;
35380;SDS011;21486;51.916;8.378;2022-12-10T06:08:31;69.22;;;40.42;;
35380;SDS011;21486;51.916;8.378;2022-12-10T06:11:02;70.45;;;40.42;;
35380;SDS011;21486;51.916;8.378;2022-12-10T06:13:32;68.40;;;40.25;;
35380;SDS011;21486;51.916;8.378;2022-12-10T06:15:57;66.87;;;39.43;;
35380;SDS011;21486;51.916;8.378;2022-12-10T06:18:23;72.20;;;41.23;;
35380;SDS011;21486;51.916;8.378;2022-12-10T06:20:49;71.23;;;40.53;;
35380;SDS011;21486;51.916;8.378;2022-12-10T06:23:14;69.30;;;40.60;;
35380;SDS011;21486;51.916;8.378;2022-12-10T06:25:40;73.43;;;41.50;;
35380;SDS011;21486;51.916;8.378;2022-12-10T06:28:06;68.93;;;41.57;;
35380;SDS011;21486;51.916;8.378;2022-12-10T06:30:32;73.30;;;43.60;;
35380;SDS011;21486;51.916;8.378;2022-12-10T06:32:59;68.38;;;41.50;;
35380;SDS011;21486;51.916;8.378;2022-12-10T06:35:25;66.97;;;39.15;;
35380;SDS011;21486;51.916;8.378;2022-12-10T06:37:50;68.95;;;39.30;;
35380;SDS011;21486;51.916;8.378;2022-12-10T06:40:16;75.47;;;43.77;;
35380;SDS011;21486;51.916;8.378;2022-12-10T06:42:42;77.75;;;44.30;;
35380;SDS011;21486;51.916;8.378;2022-12-10T06:45:08;74.63;;;43.83;;
35380;SDS011;21486;51.916;8.378;2022-12-10T06:47:34;87.70;;;50.42;;
35380;SDS011;21486;51.916;8.378;2022-12-10T06:49:59;82.47;;;46.97;;
35380;SDS011;21486;51.916;8.378;2022-12-10T06:52:25;83.17;;;47.10;;
35380;SDS011;21486;51.916;8.378;2022-12-10T06:54:50;76.20;;;42.67;;
35380;SDS011;21486;51.916;8.378;2022-12-10T06:57:16;68.60;;;39.30;;
35380;SDS011;21486;51.916;8.378;2022-12-10T06:59:41;70.47;;;40.27;;
35380;SDS011;21486;51.916;8.378;2022-12-10T07:02:08;74.07;;;40.63;;
35380;SDS011;21486;51.916;8.378;2022-12-10T07:04:34;69.38;;;40.63;;
35380;SDS011;21486;51.916;8.378;2022-12-10T07:07:00;70.23;;;40.60;;
35380;SDS011;21486;51.916;8.378;2022-12-10T07:09:26;66.27;;;38.77;;
35380;SDS011;21486;51.916;8.378;2022-12-10T07:11:51;69.03;;;39.57;;
35380;SDS011;21486;51.916;8.378;2022-12-10T07:14:17;73.73;;;40.47;;
35380;SDS011;21486;51.916;8.378;2022-12-10T07:16:43;67.80;;;38.57;;
35380;SDS011;21486;51.916;8.378;2022-12-10T07:19:09;70.63;;;40.00;;
35380;SDS011;21486;51.916;8.378;2022-12-10T07:21:37;71.00;;;39.92;;
35380;SDS011;21486;51.916;8.378;2022-12-10T07:24:07;75.18;;;41.97;;
35380;SDS011;21486;51.916;8.378;2022-12-10T07:26:38;79.50;;;42.45;;
35380;SDS011;21486;51.916;8.378;2022-12-10T07:29:05;74.97;;;41.47;;
35380;SDS011;21486;51.916;8.378;2022-12-10T07:31:32;73.65;;;41.75;;
35380;SDS011;21486;51.916;8.378;2022-12-10T07:34:00;75.38;;;42.40;;
35380;SDS011;21486;51.916;8.378;2022-12-10T07:36:26;72.30;;;41.08;;
35380;SDS011;21486;51.916;8.378;2022-12-10T07:38:53;80.22;;;42.95;;
35380;SDS011;21486;51.916;8.378;2022-12-10T07:41:19;74.97;;;41.85;;
35380;SDS011;21486;51.916;8.378;2022-12-10T07:43:46;71.70;;;40.40;;
35380;SDS011;21486;51.916;8.378;2022-12-10T07:46:15;73.78;;;40.50;;
35380;SDS011;21486;51.916;8.378;2022-12-10T07:48:42;75.85;;;42.38;;
35380;SDS011;21486;51.916;8.378;2022-12-10T07:51:09;75.22;;;41.58;;
35380;SDS011;21486;51.916;8.378;2022-12-10T07:53:36;71.82;;;40.58;;
35380;SDS011;21486;51.916;8.378;2022-12-10T07:56:02;70.53;;;39.22;;
35380;SDS011;21486;51.916;8.378;2022-12-10T07:58:28;71.72;;;40.50;;
35380;SDS011;21486;51.916;8.378;2022-12-10T08:00:53;68.73;;;40.40;;
35380;SDS011;21486;51.916;8.378;2022-12-10T08:03:19;74.70;;;40.93;;
35380;SDS011;21486;51.916;8.378;2022-12-10T08:05:45;73.90;;;42.40;;
35380;SDS011;21486;51.916;8.378;2022-12-10T08:08:10;76.00;;;43.00;;
35380;SDS011;21486;51.916;8.378;2022-12-10T08:10:36;88.70;;;48.23;;
35380;SDS011;21486;51.916;8.378;2022-12-10T08:13:03;72.95;;;42.08;;
35380;SDS011;21486;51.916;8.378;2022-12-10T08:15:29;68.95;;;41.38;;
35380;SDS011;21486;51.916;8.378;2022-12-10T08:17:55;75.50;;;46.22;;
35380;SDS011;21486;51.916;8.378;2022-12-10T08:20:21;67.47;;;39.08;;
35380;SDS011;21486;51.916;8.378;2022-12-10T08:22:47;72.63;;;43.17;;
35380;SDS011;21486;51.916;8.378;2022-12-10T08:25:13;65.10;;;38.67;;
35380;SDS011;21486;51.916;8.378;2022-12-10T08:27:38;66.30;;;38.17;;
35380;SDS011;21486;51.916;8.378;2022-12-10T08:30:04;65.77;;;36.37;;
35380;SDS011;21486;51.916;8.378;2022-12-10T08:32:30;69.80;;;38.92;;
35380;SDS011;21486;51.916;8.378;2022-12-10T08:34:56;65.05;;;37.35;;
35380;SDS011;21486;51.916;8.378;2022-12-10T08:37:21;67.13;;;36.88;;
35380;SDS011;21486;51.916;8.378;2022-12-10T08:39:47;66.18;;;36.65;;
35380;SDS011;21486;51.916;8.378;2022-12-10T08:42:13;67.13;;;37.92;;
35380;SDS011;21486;51.916;8.378;2022-12-10T08:44:38;66.30;;;37.97;;
35380;SDS011;21486;51.916;8.378;2022-12-10T08:47:04;67.38;;;37.20;;
35380;SDS011;21486;51.916;8.378;2022-12-10T08:49:29;67.93;;;38.75;;
35380;SDS011;21486;51.916;8.378;2022-12-10T08:51:55;64.22;;;36.75;;
35380;SDS011;21486;51.916;8.378;2022-12-10T08:54:21;64.20;;;37.63;;
35380;SDS011;21486;51.916;8.378;2022-12-10T08:56:46;62.97;;;36.83;;
35380;SDS011;21486;51.916;8.378;2022-12-10T08:59:12;66.90;;;39.53;;
35380;SDS011;21486;51.916;8.378;2022-12-10T09:01:38;64.70;;;38.97;;
35380;SDS011;21486;51.916;8.378;2022-12-10T09:04:03;65.33;;;38.03;;
35380;SDS011;21486;51.916;8.378;2022-12-10T09:06:29;60.33;;;35.60;;
35380;SDS011;21486;51.916;8.378;2022-12-10T09:08:55;61.22;;;36.20;;
35380;SDS011;21486;51.916;8.378;2022-12-10T09:11:23;67.53;;;38.10;;
35380;SDS011;21486;51.916;8.378;2022-12-10T09:13:52;67.15;;;38.00;;
35380;SDS011;21486;51.916;8.378;2022-12-10T09:16:18;64.30;;;38.60;;
35380;SDS011;21486;51.916;8.378;2022-12-10T09:18:44;66.43;;;38.95;;
35380;SDS011;21486;51.916;8.378;2022-12-10T09:21:12;65.22;;;37.88;;
35380;SDS011;21486;51.916;8.378;2022-12-10T09:23:42;65.95;;;36.92;;
35380;SDS011;21486;51.916;8.378;2022-12-10T09:26:09;65.18;;;36.83;;
35380;SDS011;21486;51.916;8.378;2022-12-10T09:28:36;66.07;;;37.05;;
35380;SDS011;21486;51.916;8.378;2022-12-10T09:31:03;62.28;;;37.22;;
35380;SDS011;21486;51.916;8.378;2022-12-10T09:33:30;59.03;;;35.67;;
35380;SDS011;21486;51.916;8.378;2022-12-10T09:35:57;58.83;;;34.17;;
35380;SDS011;21486;51.916;8.378;2022-12-10T09:38:23;64.68;;;36.83;;
35380;SDS011;21486;51.916;8.378;2022-12-10T09:41:00;65.88;;;37.97;;
35380;SDS011;21486;51.916;8.378;2022-12-10T09:46:39;66.47;;;38.22;;
35380;SDS011;21486;51.916;8.378;2022-12-10T09:52:14;59.40;;;33.72;;
35380;SDS011;21486;51.916;8.378;2022-12-10T09:54:44;66.88;;;37.50;;
35380;SDS011;21486;51.916;8.378;2022-12-10T09:57:34;63.00;;;35.83;;
35380;SDS011;21486;51.916;8.378;2022-12-10T10:00:05;56.13;;;33.73;;
35380;SDS011;21486;51.916;8.378;2022-12-10T10:02:42;59.70;;;32.85;;
35380;SDS011;21486;51.916;8.378;2022-12-10T10:07:35;54.13;;;31.80;;
35380;SDS011;21486;51.916;8.378;2022-12-10T10:10:05;53.63;;;31.27;;
35380;SDS011;21486;51.916;8.378;2022-12-10T10:12:41;55.23;;;31.53;;
35380;SDS011;21486;51.916;8.378;2022-12-10T10:15:14;57.85;;;33.55;;
35380;SDS011;21486;51.916;8.378;2022-12-10T10:17:43;54.05;;;32.75;;
35380;SDS011;21486;51.916;8.378;2022-12-10T10:20:12;61.85;;;33.15;;
35380;SDS011;21486;51.916;8.378;2022-12-10T10:22:39;52.55;;;32.40;;
35380;SDS011;21486;51.916;8.378;2022-12-10T10:25:05;56.88;;;33.45;;
35380;SDS011;21486;51.916;8.378;2022-12-10T10:27:42;51.97;;;32.17;;
35380;SDS011;21486;51.916;8.378;2022-12-10T10:30:13;53.75;;;33.20;;
35380;SDS011;21486;51.916;8.378;2022-12-10T10:35:07;53.33;;;31.25;;
35380;SDS011;21486;51.916;8.378;2022-12-10T10:37:43;54.15;;;32.92;;
35380;SDS011;21486;51.916;8.378;2022-12-10T10:40:22;50.97;;;31.05;;
35380;SDS011;21486;51.916;8.378;2022-12-10T10:42:51;55.55;;;31.90;;
35380;SDS011;21486;51.916;8.378;2022-12-10T10:45:33;53.38;;;31.50;;
35380;SDS011;21486;51.916;8.378;2022-12-10T10:48:04;51.20;;;31.43;;
35380;SDS011;21486;51.916;8.378;2022-12-10T10:50:45;53.55;;;31.08;;
35380;SDS011;21486;51.916;8.378;2022-12-10T10:53:29;46.67;;;29.65;;
35380;SDS011;21486;51.916;8.378;2022-12-10T10:58:56;44.30;;;26.80;;
35380;SDS011;21486;51.916;8.378;2022-12-10T11:01:23;47.03;;;27.92;;
35380;SDS011;21486;51.916;8.378;2022-12-10T11:03:57;45.00;;;28.08;;
35380;SDS011;21486;51.916;8.378;2022-12-10T11:06:24;43.90;;;28.52;;
35380;SDS011;21486;51.916;8.378;2022-12-10T11:08:51;47.50;;;27.45;;
35380;SDS011;21486;51.916;8.378;2022-12-10T11:11:22;46.22;;;27.83;;
35380;SDS011;21486;51.916;8.378;2022-12-10T11:14:22;43.58;;;26.92;;
35380;SDS011;21486;51.916;8.378;2022-12-10T11:16:59;48.40;;;28.75;;
35380;SDS011;21486;51.916;8.378;2022-12-10T11:19:29;44.83;;;27.90;;
35380;SDS011;21486;51.916;8.378;2022-12-10T11:21:55;45.28;;;27.80;;
35380;SDS011;21486;51.916;8.378;2022-12-10T11:24:42;47.40;;;28.13;;
35380;SDS011;21486;51.916;8.378;2022-12-10T11:27:09;48.47;;;29.30;;
35380;SDS011;21486;51.916;8.378;2022-12-10T11:32:47;27.95;;;18.08;;
35380;SDS011;21486;51.916;8.378;2022-12-10T11:38:11;38.08;;;24.15;;
35380;SDS011;21486;51.916;8.378;2022-12-10T11:41:05;37.28;;;24.95;;
35380;SDS011;21486;51.916;8.378;2022-12-10T11:43:44;42.20;;;25.38;;
35380;SDS011;21486;51.916;8.378;2022-12-10T11:51:51;37.70;;;23.42;;
35380;SDS011;21486;51.916;8.378;2022-12-10T11:57:09;38.60;;;24.50;;
35380;SDS011;21486;51.916;8.378;2022-12-10T11:59:59;37.47;;;23.38;;
35380;SDS011;21486;51.916;8.378;2022-12-10T12:08:05;29.05;;;19.67;;
35380;SDS011;21486;51.916;8.378;2022-12-10T12:10:41;29.95;;;18.25;;
35380;SDS011;21486;51.916;8.378;2022-12-10T12:13:25;25.65;;;16.30;;
35380;SDS011;21486;51.916;8.378;2022-12-10T12:16:09;28.00;;;17.38;;
35380;SDS011;21486;51.916;8.378;2022-12-10T12:21:09;28.50;;;17.73;;
35380;SDS011;21486;51.916;8.378;2022-12-10T12:26:04;27.97;;;17.67;;
35380;SDS011;21486;51.916;8.378;2022-12-10T12:28:39;30.40;;;18.13;;
35380;SDS011;21486;51.916;8.378;2022-12-10T12:31:14;27.52;;;17.30;;
35380;SDS011;21486;51.916;8.378;2022-12-10T12:33:47;29.73;;;18.55;;
35380;SDS011;21486;51.916;8.378;2022-12-10T12:36:30;31.05;;;18.27;;
35380;SDS011;21486;51.916;8.378;2022-12-10T12:39:05;26.80;;;18.20;;
35380;SDS011;21486;51.916;8.378;2022-12-10T12:41:58;32.38;;;19.48;;
35380;SDS011;21486;51.916;8.378;2022-12-10T12:50:42;34.25;;;20.83;;
35380;SDS011;21486;51.916;8.378;2022-12-10T12:52:53;29.92;;;19.65;;
35380;SDS011;21486;51.916;8.378;2022-12-10T12:58:17;31.45;;;19.60;;
35380;SDS011;21486;51.916;8.378;2022-12-10T13:00:52;33.63;;;20.13;;
35380;SDS011;21486;51.916;8.378;2022-12-10T13:03:44;29.73;;;19.52;;
35380;SDS011;21486;51.916;8.378;2022-12-10T13:06:13;33.83;;;19.27;;
35380;SDS011;21486;51.916;8.378;2022-12-10T13:11:19;31.98;;;20.30;;
35380;SDS011;21486;51.916;8.378;2022-12-10T13:14:09;30.75;;;19.70;;
35380;SDS011;21486;51.916;8.378;2022-12-10T13:40:13;33.80;;;20.92;;
35380;SDS011;21486;51.916;8.378;2022-12-10T13:42:59;38.40;;;22.60;;
35380;SDS011;21486;51.916;8.378;2022-12-10T13:46:23;34.83;;;22.02;;
35380;SDS011;21486;51.916;8.378;2022-12-10T13:49:02;31.92;;;20.13;;
35380;SDS011;21486;51.916;8.378;2022-12-10T13:51:32;32.85;;;20.65;;
35380;SDS011;21486;51.916;8.378;2022-12-10T14:00:13;32.85;;;20.75;;
35380;SDS011;21486;51.916;8.378;2022-12-10T14:08:22;32.67;;;20.45;;
35380;SDS011;21486;51.916;8.378;2022-12-10T14:10:52;37.15;;;21.77;;
35380;SDS011;21486;51.916;8.378;2022-12-10T14:13:19;35.17;;;21.58;;
35380;SDS011;21486;51.916;8.378;2022-12-10T14:15:57;32.50;;;20.95;;
35380;SDS011;21486;51.916;8.378;2022-12-10T14:18:25;35.45;;;21.77;;
35380;SDS011;21486;51.916;8.378;2022-12-10T14:20:53;35.85;;;21.65;;
35380;SDS011;21486;51.916;8.378;2022-12-10T14:23:25;35.10;;;22.08;;
35380;SDS011;21486;51.916;8.378;2022-12-10T14:26:22;37.35;;;22.60;;
35380;SDS011;21486;51.916;8.378;2022-12-10T14:28:59;39.38;;;23.35;;
35380;SDS011;21486;51.916;8.378;2022-12-10T14:31:28;42.15;;;24.42;;
35380;SDS011;21486;51.916;8.378;2022-12-10T14:34:10;39.35;;;24.05;;
35380;SDS011;21486;51.916;8.378;2022-12-10T14:36:47;37.38;;;22.95;;
35380;SDS011;21486;51.916;8.378;2022-12-10T14:39:15;38.28;;;22.70;;
35380;SDS011;21486;51.916;8.378;2022-12-10T14:41:44;39.08;;;23.42;;
35380;SDS011;21486;51.916;8.378;2022-12-10T14:44:13;40.08;;;23.92;;
35380;SDS011;21486;51.916;8.378;2022-12-10T14:46:47;38.17;;;23.35;;
35380;SDS011;21486;51.916;8.378;2022-12-10T14:49:16;40.92;;;23.40;;
35380;SDS011;21486;51.916;8.378;2022-12-10T14:51:44;38.25;;;23.83;;
35380;SDS011;21486;51.916;8.378;2022-12-10T14:54:33;41.60;;;25.73;;
35380;SDS011;21486;51.916;8.378;2022-12-10T14:57:01;38.50;;;24.17;;
35380;SDS011;21486;51.916;8.378;2022-12-10T15:01:59;36.42;;;23.65;;
35380;SDS011;21486;51.916;8.378;2022-12-10T15:04:40;37.47;;;23.33;;
35380;SDS011;21486;51.916;8.378;2022-12-10T15:07:14;41.75;;;24.17;;
35380;SDS011;21486;51.916;8.378;2022-12-10T15:09:48;40.35;;;24.75;;
35380;SDS011;21486;51.916;8.378;2022-12-10T15:12:21;41.13;;;24.90;;
35380;SDS011;21486;51.916;8.378;2022-12-10T15:18:15;42.95;;;24.02;;
35380;SDS011;21486;51.916;8.378;2022-12-10T15:26:20;36.78;;;23.75;;
35380;SDS011;21486;51.916;8.378;2022-12-10T15:28:53;40.33;;;25.00;;
35380;SDS011;21486;51.916;8.378;2022-12-10T15:31:48;43.53;;;26.10;;
35380;SDS011;21486;51.916;8.378;2022-12-10T15:34:15;39.88;;;24.60;;
35380;SDS011;21486;51.916;8.378;2022-12-10T15:36:52;45.13;;;26.63;;
35380;SDS011;21486;51.916;8.378;2022-12-10T15:39:25;38.95;;;24.67;;
35380;SDS011;21486;51.916;8.378;2022-12-10T15:41:57;44.35;;;26.50;;
35380;SDS011;21486;51.916;8.378;2022-12-10T15:47:23;42.17;;;25.55;;
35380;SDS011;21486;51.916;8.378;2022-12-10T15:49:51;46.13;;;26.63;;
35380;SDS011;21486;51.916;8.378;2022-12-10T15:52:20;43.75;;;26.25;;
35380;SDS011;21486;51.916;8.378;2022-12-10T15:54:56;41.60;;;24.63;;
35380;SDS011;21486;51.916;8.378;2022-12-10T16:00:05;45.05;;;25.98;;
35380;SDS011;21486;51.916;8.378;2022-12-10T16:02:37;39.23;;;25.10;;
35380;SDS011;21486;51.916;8.378;2022-12-10T16:05:30;43.92;;;26.52;;
35380;SDS011;21486;51.916;8.378;2022-12-10T16:08:05;41.20;;;24.02;;
35380;SDS011;21486;51.916;8.378;2022-12-10T16:10:37;42.27;;;24.87;;
35380;SDS011;21486;51.916;8.378;2022-12-10T16:13:04;43.00;;;26.38;;
35380;SDS011;21486;51.916;8.378;2022-12-10T16:15:38;45.37;;;26.67;;
35380;SDS011;21486;51.916;8.378;2022-12-10T16:18:14;43.58;;;26.20;;
35380;SDS011;21486;51.916;8.378;2022-12-10T16:20:46;43.72;;;25.73;;
35380;SDS011;21486;51.916;8.378;2022-12-10T16:23:11;39.78;;;25.02;;
35380;SDS011;21486;51.916;8.378;2022-12-10T16:25:39;43.03;;;24.35;;
35380;SDS011;21486;51.916;8.378;2022-12-10T16:28:10;42.92;;;26.25;;
35380;SDS011;21486;51.916;8.378;2022-12-10T16:30:41;41.33;;;25.13;;
35380;SDS011;21486;51.916;8.378;2022-12-10T16:33:11;42.33;;;25.05;;
35380;SDS011;21486;51.916;8.378;2022-12-10T16:35:38;40.53;;;25.30;;
35380;SDS011;21486;51.916;8.378;2022-12-10T16:38:03;41.65;;;25.52;;